sensor_id;sensor_type;location;lat;lon;timestamp;P1;durP1;ratioP1;P2;durP2;ratioP2
4921;SDS011;16625;53.624;10.106;2022-08-07T06:45:56;12.60;;;8.47;;
4921;SDS011;16625;53.624;10.106;2022-08-07T06:48:24;20.13;;;8.83;;
4921;SDS011;16625;53.624;10.106;2022-08-07T06:51:08;14.37;;;7.40;;
4921;SDS011;16625;53.624;10.106;2022-08-07T06:53:40;15.30;;;7.50;;
4921;SDS011;16625;53.624;10.106;2022-08-07T07:01:42;10.17;;;7.43;;
4921;SDS011;16625;53.624;10.106;2022-08-07T07:04:10;11.40;;;7.37;;
4921;SDS011;16625;53.624;10.106;2022-08-07T07:06:38;11.03;;;6.27;;
4921;SDS011;16625;53.624;10.106;2022-08-07T07:09:16;9.50;;;6.37;;
4921;SDS011;16625;53.624;10.106;2022-08-07T07:11:52;10.37;;;6.30;;
4921;SDS011;16625;53.624;10.106;2022-08-07T07:14:36;10.40;;;5.80;;
4921;SDS011;16625;53.624;10.106;2022-08-07T07:17:14;8.73;;;6.50;;
4921;SDS011;16625;53.624;10.106;2022-08-07T07:19:54;13.50;;;5.20;;
4921;SDS011;16625;53.624;10.106;2022-08-07T07:22:25;11.33;;;5.53;;
4921;SDS011;16625;53.624;10.106;2022-08-07T07:24:54;6.37;;;5.10;;
4921;SDS011;16625;53.624;10.106;2022-08-07T07:27:22;5.50;;;4.10;;
4921;SDS011;16625;53.624;10.106;2022-08-07T07:29:55;9.20;;;5.57;;
4921;SDS011;16625;53.624;10.106;2022-08-07T07:32:27;8.03;;;5.57;;
4921;SDS011;16625;53.624;10.106;2022-08-07T07:34:57;9.90;;;5.23;;
4921;SDS011;16625;53.624;10.106;2022-08-07T07:37:25;7.40;;;4.97;;
4921;SDS011;16625;53.624;10.106;2022-08-07T07:39:57;9.87;;;5.60;;
4921;SDS011;16625;53.624;10.106;2022-08-07T07:42:26;7.90;;;5.00;;
4921;SDS011;16625;53.624;10.106;2022-08-07T07:44:55;6.00;;;4.80;;
4921;SDS011;16625;53.624;10.106;2022-08-07T07:47:27;8.50;;;4.63;;
4921;SDS011;16625;53.624;10.106;2022-08-07T07:49:56;8.37;;;5.47;;
4921;SDS011;16625;53.624;10.106;2022-08-07T07:52:24;8.53;;;4.90;;
4921;SDS011;16625;53.624;10.106;2022-08-07T07:54:52;14.20;;;5.03;;
4921;SDS011;16625;53.624;10.106;2022-08-07T07:57:22;11.10;;;4.90;;
4921;SDS011;16625;53.624;10.106;2022-08-07T07:59:50;6.40;;;4.53;;
4921;SDS011;16625;53.624;10.106;2022-08-07T08:02:19;7.60;;;5.20;;
4921;SDS011;16625;53.624;10.106;2022-08-07T08:04:50;7.37;;;5.13;;
4921;SDS011;16625;53.624;10.106;2022-08-07T08:16:53;10.37;;;5.97;;
4921;SDS011;16625;53.624;10.106;2022-08-07T08:19:24;12.90;;;5.47;;
4921;SDS011;16625;53.624;10.106;2022-08-07T08:21:55;6.90;;;5.17;;
4921;SDS011;16625;53.624;10.106;2022-08-07T08:24:42;7.70;;;5.03;;
4921;SDS011;16625;53.624;10.106;2022-08-07T08:27:30;8.90;;;5.30;;
4921;SDS011;16625;53.624;10.106;2022-08-07T08:30:03;6.53;;;4.40;;
4921;SDS011;16625;53.624;10.106;2022-08-07T08:32:32;5.43;;;4.60;;
4921;SDS011;16625;53.624;10.106;2022-08-07T08:35:02;8.40;;;4.70;;
4921;SDS011;16625;53.624;10.106;2022-08-07T08:37:33;6.00;;;4.87;;
4921;SDS011;16625;53.624;10.106;2022-08-07T08:43:27;5.13;;;3.67;;
4921;SDS011;16625;53.624;10.106;2022-08-07T08:46:04;12.90;;;4.20;;
4921;SDS011;16625;53.624;10.106;2022-08-07T08:48:36;9.10;;;4.20;;
4921;SDS011;16625;53.624;10.106;2022-08-07T08:51:15;6.00;;;4.00;;
4921;SDS011;16625;53.624;10.106;2022-08-07T08:53:55;5.97;;;3.67;;
4921;SDS011;16625;53.624;10.106;2022-08-07T08:56:29;5.23;;;4.07;;
4921;SDS011;16625;53.624;10.106;2022-08-07T08:59:03;5.73;;;4.27;;
4921;SDS011;16625;53.624;10.106;2022-08-07T09:01:36;7.50;;;4.10;;
4921;SDS011;16625;53.624;10.106;2022-08-07T09:04:13;5.50;;;3.50;;
4921;SDS011;16625;53.624;10.106;2022-08-07T09:07:02;6.90;;;3.70;;
4921;SDS011;16625;53.624;10.106;2022-08-07T09:09:49;5.93;;;3.77;;
4921;SDS011;16625;53.624;10.106;2022-08-07T09:12:28;7.73;;;3.40;;
4921;SDS011;16625;53.624;10.106;2022-08-07T09:15:13;5.10;;;4.20;;
4921;SDS011;16625;53.624;10.106;2022-08-07T09:21:02;6.70;;;4.20;;
4921;SDS011;16625;53.624;10.106;2022-08-07T09:23:42;4.60;;;3.70;;
4921;SDS011;16625;53.624;10.106;2022-08-07T09:26:26;6.17;;;4.43;;
4921;SDS011;16625;53.624;10.106;2022-08-07T09:29:19;5.83;;;4.40;;
4921;SDS011;16625;53.624;10.106;2022-08-07T09:32:11;7.47;;;4.23;;
4921;SDS011;16625;53.624;10.106;2022-08-07T09:40:08;7.07;;;4.30;;
4921;SDS011;16625;53.624;10.106;2022-08-07T09:42:49;6.33;;;4.13;;
4921;SDS011;16625;53.624;10.106;2022-08-07T09:45:30;6.20;;;4.53;;
4921;SDS011;16625;53.624;10.106;2022-08-07T09:48:20;6.70;;;4.17;;
4921;SDS011;16625;53.624;10.106;2022-08-07T09:51:02;6.00;;;4.70;;
4921;SDS011;16625;53.624;10.106;2022-08-07T09:53:37;8.13;;;5.47;;
4921;SDS011;16625;53.624;10.106;2022-08-07T09:58:55;7.97;;;4.97;;
4921;SDS011;16625;53.624;10.106;2022-08-07T10:01:43;5.07;;;4.17;;
4921;SDS011;16625;53.624;10.106;2022-08-07T10:10:43;7.87;;;5.13;;
4921;SDS011;16625;53.624;10.106;2022-08-07T10:16:21;5.53;;;4.00;;
4921;SDS011;16625;53.624;10.106;2022-08-07T10:19:16;6.27;;;3.90;;
4921;SDS011;16625;53.624;10.106;2022-08-07T10:22:00;4.80;;;4.10;;
4921;SDS011;16625;53.624;10.106;2022-08-07T10:24:59;6.50;;;4.10;;
4921;SDS011;16625;53.624;10.106;2022-08-07T10:30:33;7.17;;;4.60;;
4921;SDS011;16625;53.624;10.106;2022-08-07T10:33:23;4.83;;;3.70;;
4921;SDS011;16625;53.624;10.106;2022-08-07T10:36:14;9.43;;;5.23;;
4921;SDS011;16625;53.624;10.106;2022-08-07T10:38:56;6.30;;;4.30;;
4921;SDS011;16625;53.624;10.106;2022-08-07T10:41:50;7.43;;;4.53;;
4921;SDS011;16625;53.624;10.106;2022-08-07T10:44:33;6.10;;;3.70;;
4921;SDS011;16625;53.624;10.106;2022-08-07T10:53:16;7.37;;;4.43;;
4921;SDS011;16625;53.624;10.106;2022-08-07T10:55:56;4.80;;;4.10;;
4921;SDS011;16625;53.624;10.106;2022-08-07T11:14:39;7.17;;;4.60;;
4921;SDS011;16625;53.624;10.106;2022-08-07T11:17:13;6.83;;;4.33;;
4921;SDS011;16625;53.624;10.106;2022-08-07T11:19:51;7.00;;;3.93;;
4921;SDS011;16625;53.624;10.106;2022-08-07T11:22:33;7.80;;;4.20;;
4921;SDS011;16625;53.624;10.106;2022-08-07T11:25:08;5.03;;;3.87;;
4921;SDS011;16625;53.624;10.106;2022-08-07T11:28:00;6.20;;;4.20;;
4921;SDS011;16625;53.624;10.106;2022-08-07T11:30:39;6.93;;;4.37;;
4921;SDS011;16625;53.624;10.106;2022-08-07T11:33:37;5.60;;;3.80;;
4921;SDS011;16625;53.624;10.106;2022-08-07T11:36:14;6.13;;;3.60;;
4921;SDS011;16625;53.624;10.106;2022-08-07T11:39:12;6.10;;;3.53;;
4921;SDS011;16625;53.624;10.106;2022-08-07T11:42:04;5.83;;;4.20;;
4921;SDS011;16625;53.624;10.106;2022-08-07T11:44:43;4.67;;;3.70;;
4921;SDS011;16625;53.624;10.106;2022-08-07T11:47:40;5.40;;;3.90;;
4921;SDS011;16625;53.624;10.106;2022-08-07T11:50:26;7.53;;;4.10;;
4921;SDS011;16625;53.624;10.106;2022-08-07T11:53:02;5.80;;;4.20;;
4921;SDS011;16625;53.624;10.106;2022-08-07T11:55:58;7.43;;;3.60;;
4921;SDS011;16625;53.624;10.106;2022-08-07T11:58:39;4.13;;;3.30;;
4921;SDS011;16625;53.624;10.106;2022-08-07T12:01:23;5.40;;;3.50;;
4921;SDS011;16625;53.624;10.106;2022-08-07T12:04:06;6.67;;;3.77;;
4921;SDS011;16625;53.624;10.106;2022-08-07T12:06:47;5.90;;;3.70;;
4921;SDS011;16625;53.624;10.106;2022-08-07T12:09:21;7.43;;;3.60;;
4921;SDS011;16625;53.624;10.106;2022-08-07T12:12:01;10.03;;;3.50;;
4921;SDS011;16625;53.624;10.106;2022-08-07T12:17:10;5.00;;;3.47;;
4921;SDS011;16625;53.624;10.106;2022-08-07T12:19:43;5.10;;;3.60;;
4921;SDS011;16625;53.624;10.106;2022-08-07T12:22:19;4.77;;;3.50;;
4921;SDS011;16625;53.624;10.106;2022-08-07T12:24:55;6.00;;;3.30;;
4921;SDS011;16625;53.624;10.106;2022-08-07T12:28:04;6.30;;;3.47;;
4921;SDS011;16625;53.624;10.106;2022-08-07T12:30:39;4.37;;;3.47;;
4921;SDS011;16625;53.624;10.106;2022-08-07T12:33:11;4.90;;;3.50;;
4921;SDS011;16625;53.624;10.106;2022-08-07T12:35:43;8.60;;;4.37;;
4921;SDS011;16625;53.624;10.106;2022-08-07T12:38:13;4.80;;;3.40;;
4921;SDS011;16625;53.624;10.106;2022-08-07T12:40:41;4.50;;;3.43;;
4921;SDS011;16625;53.624;10.106;2022-08-07T12:43:10;6.53;;;3.63;;
4921;SDS011;16625;53.624;10.106;2022-08-07T12:48:59;7.87;;;3.70;;
4921;SDS011;16625;53.624;10.106;2022-08-07T12:51:36;5.10;;;3.05;;
4921;SDS011;16625;53.624;10.106;2022-08-07T12:54:14;4.83;;;3.40;;
4921;SDS011;16625;53.624;10.106;2022-08-07T12:56:50;8.00;;;3.97;;
4921;SDS011;16625;53.624;10.106;2022-08-07T13:02:00;5.10;;;3.50;;
4921;SDS011;16625;53.624;10.106;2022-08-07T13:11:04;4.90;;;3.63;;
4921;SDS011;16625;53.624;10.106;2022-08-07T13:13:46;7.30;;;3.70;;
4921;SDS011;16625;53.624;10.106;2022-08-07T13:16:26;5.70;;;3.03;;
4921;SDS011;16625;53.624;10.106;2022-08-07T13:19:03;5.07;;;3.63;;
4921;SDS011;16625;53.624;10.106;2022-08-07T13:21:44;4.40;;;3.10;;
4921;SDS011;16625;53.624;10.106;2022-08-07T13:31:14;6.87;;;3.80;;
4921;SDS011;16625;53.624;10.106;2022-08-07T13:33:46;5.43;;;3.80;;
4921;SDS011;16625;53.624;10.106;2022-08-07T13:36:25;5.40;;;4.00;;
4921;SDS011;16625;53.624;10.106;2022-08-07T13:39:00;8.80;;;3.60;;
4921;SDS011;16625;53.624;10.106;2022-08-07T13:41:38;6.30;;;4.20;;
4921;SDS011;16625;53.624;10.106;2022-08-07T13:44:11;4.80;;;3.47;;
4921;SDS011;16625;53.624;10.106;2022-08-07T13:46:51;5.90;;;3.50;;
4921;SDS011;16625;53.624;10.106;2022-08-07T13:49:22;6.40;;;3.90;;
4921;SDS011;16625;53.624;10.106;2022-08-07T13:51:56;4.67;;;3.90;;
4921;SDS011;16625;53.624;10.106;2022-08-07T13:54:29;6.93;;;4.10;;
4921;SDS011;16625;53.624;10.106;2022-08-07T13:56:59;8.27;;;5.27;;
4921;SDS011;16625;53.624;10.106;2022-08-07T14:04:49;6.90;;;3.80;;
4921;SDS011;16625;53.624;10.106;2022-08-07T14:07:20;8.60;;;4.40;;
4921;SDS011;16625;53.624;10.106;2022-08-07T14:18:28;6.50;;;3.97;;
4921;SDS011;16625;53.624;10.106;2022-08-07T14:21:00;10.02;;;3.88;;
4921;SDS011;16625;53.624;10.106;2022-08-07T14:23:33;9.50;;;4.27;;
4921;SDS011;16625;53.624;10.106;2022-08-07T14:26:04;4.70;;;3.67;;
4921;SDS011;16625;53.624;10.106;2022-08-07T14:28:35;5.28;;;3.72;;
4921;SDS011;16625;53.624;10.106;2022-08-07T14:31:07;7.00;;;3.90;;
4921;SDS011;16625;53.624;10.106;2022-08-07T14:33:38;7.20;;;3.87;;
4921;SDS011;16625;53.624;10.106;2022-08-07T14:36:20;7.75;;;4.32;;
4921;SDS011;16625;53.624;10.106;2022-08-07T14:39:03;4.50;;;3.25;;
4921;SDS011;16625;53.624;10.106;2022-08-07T14:41:39;7.30;;;3.70;;
4921;SDS011;16625;53.624;10.106;2022-08-07T14:44:11;4.45;;;3.50;;
4921;SDS011;16625;53.624;10.106;2022-08-07T14:46:44;5.28;;;3.00;;
4921;SDS011;16625;53.624;10.106;2022-08-07T14:49:19;7.28;;;3.92;;
4921;SDS011;16625;53.624;10.106;2022-08-07T14:52:01;5.55;;;2.67;;
4921;SDS011;16625;53.624;10.106;2022-08-07T14:54:40;4.82;;;3.38;;
4921;SDS011;16625;53.624;10.106;2022-08-07T14:57:11;5.53;;;3.40;;
4921;SDS011;16625;53.624;10.106;2022-08-07T14:59:53;4.33;;;3.20;;
4921;SDS011;16625;53.624;10.106;2022-08-07T15:02:26;3.85;;;2.78;;
4921;SDS011;16625;53.624;10.106;2022-08-07T15:05:02;10.50;;;3.60;;
4921;SDS011;16625;53.624;10.106;2022-08-07T15:07:31;6.90;;;3.80;;
4921;SDS011;16625;53.624;10.106;2022-08-07T15:10:00;4.20;;;2.93;;
4921;SDS011;16625;53.624;10.106;2022-08-07T15:12:31;4.40;;;3.17;;
4921;SDS011;16625;53.624;10.106;2022-08-07T15:15:03;8.45;;;3.58;;
4921;SDS011;16625;53.624;10.106;2022-08-07T15:17:44;5.10;;;3.80;;
4921;SDS011;16625;53.624;10.106;2022-08-07T15:26:32;5.60;;;3.60;;
4921;SDS011;16625;53.624;10.106;2022-08-07T15:29:06;4.90;;;3.40;;
4921;SDS011;16625;53.624;10.106;2022-08-07T15:31:50;6.03;;;3.20;;
4921;SDS011;16625;53.624;10.106;2022-08-07T15:34:20;5.73;;;3.93;;
4921;SDS011;16625;53.624;10.106;2022-08-07T15:36:48;5.18;;;3.67;;
4921;SDS011;16625;53.624;10.106;2022-08-07T15:39:31;5.13;;;3.43;;
4921;SDS011;16625;53.624;10.106;2022-08-07T15:42:05;4.95;;;3.78;;
4921;SDS011;16625;53.624;10.106;2022-08-07T15:45:05;5.40;;;4.23;;
4921;SDS011;16625;53.624;10.106;2022-08-07T15:47:34;10.43;;;3.70;;
4921;SDS011;16625;53.624;10.106;2022-08-07T15:50:10;5.00;;;3.53;;
4921;SDS011;16625;53.624;10.106;2022-08-07T15:52:43;4.60;;;3.23;;
4921;SDS011;16625;53.624;10.106;2022-08-07T18:13:05;7.70;;;4.20;;
4921;SDS011;16625;53.624;10.106;2022-08-07T18:16:01;11.60;;;6.20;;
4921;SDS011;16625;53.624;10.106;2022-08-07T18:18:34;13.37;;;7.57;;
4921;SDS011;16625;53.624;10.106;2022-08-07T18:21:10;10.63;;;6.30;;
4921;SDS011;16625;53.624;10.106;2022-08-07T18:23:44;8.80;;;5.10;;
4921;SDS011;16625;53.624;10.106;2022-08-07T18:26:43;6.20;;;3.57;;
4921;SDS011;16625;53.624;10.106;2022-08-07T18:29:25;3.50;;;2.73;;
4921;SDS011;16625;53.624;10.106;2022-08-07T18:32:04;8.60;;;2.87;;
4921;SDS011;16625;53.624;10.106;2022-08-07T18:34:49;5.50;;;2.70;;
4921;SDS011;16625;53.624;10.106;2022-08-07T18:37:34;5.07;;;3.03;;
4921;SDS011;16625;53.624;10.106;2022-08-07T18:40:23;5.40;;;3.10;;
4921;SDS011;16625;53.624;10.106;2022-08-07T18:42:56;8.03;;;3.00;;
4921;SDS011;16625;53.624;10.106;2022-08-07T18:45:35;5.03;;;3.70;;
4921;SDS011;16625;53.624;10.106;2022-08-07T18:48:12;8.07;;;3.90;;
4921;SDS011;16625;53.624;10.106;2022-08-07T18:50:55;6.60;;;3.20;;
4921;SDS011;16625;53.624;10.106;2022-08-07T18:53:33;4.63;;;3.20;;
4921;SDS011;16625;53.624;10.106;2022-08-07T18:56:13;3.80;;;2.90;;
4921;SDS011;16625;53.624;10.106;2022-08-07T18:58:52;6.07;;;3.37;;
4921;SDS011;16625;53.624;10.106;2022-08-07T19:01:32;5.47;;;2.90;;
4921;SDS011;16625;53.624;10.106;2022-08-07T19:04:07;4.33;;;3.07;;
4921;SDS011;16625;53.624;10.106;2022-08-07T19:06:40;5.13;;;3.03;;
4921;SDS011;16625;53.624;10.106;2022-08-07T19:09:15;7.60;;;3.63;;
4921;SDS011;16625;53.624;10.106;2022-08-07T19:14:57;5.03;;;3.33;;
4921;SDS011;16625;53.624;10.106;2022-08-07T19:17:44;13.83;;;3.03;;
4921;SDS011;16625;53.624;10.106;2022-08-07T19:20:18;11.93;;;3.60;;
4921;SDS011;16625;53.624;10.106;2022-08-07T19:23:00;5.30;;;3.20;;
4921;SDS011;16625;53.624;10.106;2022-08-07T19:25:32;4.97;;;3.03;;
4921;SDS011;16625;53.624;10.106;2022-08-07T19:28:02;5.03;;;3.93;;
4921;SDS011;16625;53.624;10.106;2022-08-07T19:30:31;5.53;;;4.23;;
4921;SDS011;16625;53.624;10.106;2022-08-07T19:33:02;7.57;;;3.97;;
4921;SDS011;16625;53.624;10.106;2022-08-07T19:35:31;6.83;;;4.20;;
4921;SDS011;16625;53.624;10.106;2022-08-07T19:38:00;5.90;;;4.03;;
4921;SDS011;16625;53.624;10.106;2022-08-07T19:40:29;9.10;;;3.70;;
4921;SDS011;16625;53.624;10.106;2022-08-07T19:43:07;10.27;;;4.03;;
4921;SDS011;16625;53.624;10.106;2022-08-07T19:45:36;6.30;;;4.00;;
4921;SDS011;16625;53.624;10.106;2022-08-07T19:48:07;6.90;;;4.20;;
4921;SDS011;16625;53.624;10.106;2022-08-07T19:50:36;4.83;;;3.20;;
4921;SDS011;16625;53.624;10.106;2022-08-07T19:53:08;4.33;;;2.83;;
4921;SDS011;16625;53.624;10.106;2022-08-07T19:55:36;6.00;;;3.80;;
4921;SDS011;16625;53.624;10.106;2022-08-07T19:58:04;7.03;;;3.80;;
4921;SDS011;16625;53.624;10.106;2022-08-07T20:00:36;4.50;;;3.87;;
4921;SDS011;16625;53.624;10.106;2022-08-07T20:03:08;9.37;;;4.10;;
4921;SDS011;16625;53.624;10.106;2022-08-07T20:05:40;5.33;;;3.90;;
4921;SDS011;16625;53.624;10.106;2022-08-07T20:08:11;7.70;;;4.30;;
4921;SDS011;16625;53.624;10.106;2022-08-07T20:10:41;6.73;;;4.30;;
4921;SDS011;16625;53.624;10.106;2022-08-07T20:13:11;5.97;;;3.70;;
4921;SDS011;16625;53.624;10.106;2022-08-07T20:15:42;8.10;;;4.10;;
4921;SDS011;16625;53.624;10.106;2022-08-07T20:18:11;8.63;;;3.93;;
4921;SDS011;16625;53.624;10.106;2022-08-07T20:20:38;6.53;;;4.20;;
4921;SDS011;16625;53.624;10.106;2022-08-07T20:23:07;7.13;;;4.03;;
4921;SDS011;16625;53.624;10.106;2022-08-07T20:25:37;6.20;;;4.40;;
4921;SDS011;16625;53.624;10.106;2022-08-07T20:28:05;5.70;;;4.43;;
4921;SDS011;16625;53.624;10.106;2022-08-07T20:30:34;12.73;;;3.80;;
4921;SDS011;16625;53.624;10.106;2022-08-07T20:33:04;6.93;;;4.50;;
4921;SDS011;16625;53.624;10.106;2022-08-07T20:35:35;7.30;;;4.63;;
4921;SDS011;16625;53.624;10.106;2022-08-07T20:38:04;6.80;;;4.70;;
4921;SDS011;16625;53.624;10.106;2022-08-07T20:40:36;6.10;;;4.90;;
4921;SDS011;16625;53.624;10.106;2022-08-07T20:43:05;5.73;;;4.07;;
4921;SDS011;16625;53.624;10.106;2022-08-07T20:45:33;6.17;;;4.40;;
4921;SDS011;16625;53.624;10.106;2022-08-07T20:48:03;6.07;;;4.33;;
4921;SDS011;16625;53.624;10.106;2022-08-07T20:50:31;7.67;;;5.33;;
4921;SDS011;16625;53.624;10.106;2022-08-07T20:53:03;5.30;;;4.57;;
4921;SDS011;16625;53.624;10.106;2022-08-07T20:55:44;6.27;;;4.40;;
4921;SDS011;16625;53.624;10.106;2022-08-07T20:58:15;6.80;;;5.30;;
4921;SDS011;16625;53.624;10.106;2022-08-07T21:00:43;6.73;;;4.47;;
4921;SDS011;16625;53.624;10.106;2022-08-07T21:03:17;8.93;;;5.73;;
4921;SDS011;16625;53.624;10.106;2022-08-07T21:05:47;8.30;;;4.80;;
4921;SDS011;16625;53.624;10.106;2022-08-07T21:08:20;8.80;;;5.50;;
4921;SDS011;16625;53.624;10.106;2022-08-07T21:10:50;10.50;;;4.70;;
4921;SDS011;16625;53.624;10.106;2022-08-07T21:13:18;9.70;;;4.60;;
4921;SDS011;16625;53.624;10.106;2022-08-07T21:15:52;8.80;;;4.60;;
4921;SDS011;16625;53.624;10.106;2022-08-07T21:18:25;7.93;;;5.03;;
4921;SDS011;16625;53.624;10.106;2022-08-07T21:20:58;8.73;;;5.00;;
4921;SDS011;16625;53.624;10.106;2022-08-07T21:23:27;6.73;;;3.83;;
4921;SDS011;16625;53.624;10.106;2022-08-07T21:26:12;9.03;;;4.53;;
4921;SDS011;16625;53.624;10.106;2022-08-07T21:28:47;18.27;;;4.80;;
4921;SDS011;16625;53.624;10.106;2022-08-07T21:31:20;5.97;;;4.30;;
4921;SDS011;16625;53.624;10.106;2022-08-07T21:33:58;11.43;;;5.67;;
4921;SDS011;16625;53.624;10.106;2022-08-07T21:36:35;6.80;;;5.30;;
4921;SDS011;16625;53.624;10.106;2022-08-07T21:39:11;6.13;;;4.53;;
4921;SDS011;16625;53.624;10.106;2022-08-07T21:41:44;7.30;;;5.30;;
4921;SDS011;16625;53.624;10.106;2022-08-07T21:44:19;7.40;;;4.87;;
4921;SDS011;16625;53.624;10.106;2022-08-07T21:46:54;10.50;;;5.63;;
4921;SDS011;16625;53.624;10.106;2022-08-07T21:49:26;5.70;;;4.63;;
4921;SDS011;16625;53.624;10.106;2022-08-07T21:52:04;7.77;;;4.80;;
4921;SDS011;16625;53.624;10.106;2022-08-07T21:54:37;7.93;;;5.77;;
4921;SDS011;16625;53.624;10.106;2022-08-07T21:57:18;9.60;;;5.10;;
4921;SDS011;16625;53.624;10.106;2022-08-07T21:59:59;6.30;;;4.73;;
4921;SDS011;16625;53.624;10.106;2022-08-07T22:02:33;8.77;;;5.60;;
4921;SDS011;16625;53.624;10.106;2022-08-07T22:05:06;7.23;;;5.53;;
4921;SDS011;16625;53.624;10.106;2022-08-07T22:07:38;7.83;;;5.30;;
4921;SDS011;16625;53.624;10.106;2022-08-07T22:10:09;6.90;;;5.00;;
4921;SDS011;16625;53.624;10.106;2022-08-07T22:12:41;12.73;;;4.93;;
4921;SDS011;16625;53.624;10.106;2022-08-07T22:15:18;7.40;;;5.10;;
4921;SDS011;16625;53.624;10.106;2022-08-07T22:17:50;7.33;;;4.70;;
4921;SDS011;16625;53.624;10.106;2022-08-07T22:20:21;7.10;;;5.80;;
4921;SDS011;16625;53.624;10.106;2022-08-07T22:22:58;6.63;;;5.20;;
4921;SDS011;16625;53.624;10.106;2022-08-07T22:25:35;12.07;;;5.73;;
4921;SDS011;16625;53.624;10.106;2022-08-07T22:28:11;8.17;;;5.23;;
4921;SDS011;16625;53.624;10.106;2022-08-07T22:30:47;7.63;;;5.60;;
4921;SDS011;16625;53.624;10.106;2022-08-07T22:33:20;9.47;;;6.27;;
4921;SDS011;16625;53.624;10.106;2022-08-07T22:35:53;7.07;;;4.67;;
4921;SDS011;16625;53.624;10.106;2022-08-07T22:38:27;8.60;;;5.33;;
4921;SDS011;16625;53.624;10.106;2022-08-07T22:41:01;13.60;;;6.40;;
4921;SDS011;16625;53.624;10.106;2022-08-07T22:43:37;8.30;;;5.80;;
4921;SDS011;16625;53.624;10.106;2022-08-07T22:46:17;8.00;;;5.73;;
4921;SDS011;16625;53.624;10.106;2022-08-07T22:48:59;8.23;;;5.30;;
4921;SDS011;16625;53.624;10.106;2022-08-07T22:51:48;7.80;;;5.70;;
4921;SDS011;16625;53.624;10.106;2022-08-07T22:54:32;7.40;;;5.57;;
4921;SDS011;16625;53.624;10.106;2022-08-07T22:57:20;8.20;;;5.03;;
4921;SDS011;16625;53.624;10.106;2022-08-07T23:00:20;6.83;;;4.93;;
4921;SDS011;16625;53.624;10.106;2022-08-07T23:06:06;9.10;;;5.50;;
4921;SDS011;16625;53.624;10.106;2022-08-07T23:08:52;10.03;;;5.90;;
4921;SDS011;16625;53.624;10.106;2022-08-07T23:11:37;8.07;;;5.60;;
4921;SDS011;16625;53.624;10.106;2022-08-07T23:14:18;8.40;;;5.77;;
4921;SDS011;16625;53.624;10.106;2022-08-07T23:17:03;11.43;;;5.63;;
4921;SDS011;16625;53.624;10.106;2022-08-07T23:19:41;7.13;;;5.50;;
4921;SDS011;16625;53.624;10.106;2022-08-07T23:22:37;8.50;;;5.63;;
4921;SDS011;16625;53.624;10.106;2022-08-07T23:25:17;8.00;;;5.83;;
4921;SDS011;16625;53.624;10.106;2022-08-07T23:28:09;9.90;;;5.97;;
4921;SDS011;16625;53.624;10.106;2022-08-07T23:30:50;9.17;;;5.80;;
4921;SDS011;16625;53.624;10.106;2022-08-07T23:33:42;9.70;;;5.40;;
4921;SDS011;16625;53.624;10.106;2022-08-07T23:36:35;7.20;;;5.20;;
4921;SDS011;16625;53.624;10.106;2022-08-07T23:39:11;7.90;;;5.80;;
4921;SDS011;16625;53.624;10.106;2022-08-07T23:41:49;9.80;;;5.33;;
4921;SDS011;16625;53.624;10.106;2022-08-07T23:44:34;8.00;;;5.37;;
4921;SDS011;16625;53.624;10.106;2022-08-07T23:47:17;9.27;;;6.60;;
4921;SDS011;16625;53.624;10.106;2022-08-07T23:50:04;8.77;;;6.13;;
4921;SDS011;16625;53.624;10.106;2022-08-07T23:52:40;9.37;;;5.63;;
4921;SDS011;16625;53.624;10.106;2022-08-07T23:55:15;9.10;;;6.33;;
4921;SDS011;16625;53.624;10.106;2022-08-07T23:57:48;8.03;;;5.57;;
